Ana Sayfa
METAR-TAF:

METAR-TAF

Havaalanları :

Pyongyang, Kuzey Kore

Pyongyang Sunan Uluslararası Havalimanı

Enlem: 39-02N, Boylam: 125-47E, yükseklik: 36 m

METAR: eksik

Saat: 03:47 (19:17 UTC)

Tahmin

Rapor saat 04:20 UTC de 14 saat ve 57 dakika önce yapıldı.
Ayın 20'si saat 06 UTC'den ayın 21'si saat 06 UTC'ye kadar geçerli Tahmin
Rüzgar kuzey/kuzeybatıdan 10 kt ve 19 kt'a kadar ani rüzgarlar
Görüş mesafesi 10 km veya daha fazla
1500 m altında bulut yok ve kümülonimbus yok
Dönüşüyor
ayın 20'si saat 12 UTC'den ayın 20'si saat 14 UTC'ye kadar
Rüzgar batıdan 6 kt

TAF: ZKPY 200420Z 2006/2106 33005G10MPS CAVOK TX04/2007Z TNM08/2022Z BECMG 2012/2014 27003MPS

4.000'den fazla havaalanı için hava durumu gözlemleri ve tahminleri (METAR ve TAF raporları).

Kullanılabilir istasyonlar harita üzerinde sarı ve kırmızı noktalarla gösterilir.

İstasyonun adını görmek için fareyi noktanın üzerinde gezdirin.

Sonrasında hava gözlem ve tahminlerini görmek için tıklayın.

Haritayı değiştirmek için: yaklaştırmak için siyah artı işaretli yeşil düğmeye ve uzaklaştırmak için de eksi işaretli düğmeye hızla tıklayın; bitişik haritalar için yeşil okları kullanın.


METAR-TAF: